sensor_id;sensor_type;location;lat;lon;timestamp;P1;durP1;ratioP1;P2;durP2;ratioP2
51764;SDS011;37835;53.256;6.456;2022-10-16T00:00:36;7.65;;;1.60;;
51764;SDS011;37835;53.256;6.456;2022-10-16T00:03:03;6.85;;;1.67;;
51764;SDS011;37835;53.256;6.456;2022-10-16T00:05:29;8.23;;;1.70;;
51764;SDS011;37835;53.256;6.456;2022-10-16T00:07:55;6.25;;;1.70;;
51764;SDS011;37835;53.256;6.456;2022-10-16T00:10:20;6.50;;;1.90;;
51764;SDS011;37835;53.256;6.456;2022-10-16T00:12:46;7.47;;;2.00;;
51764;SDS011;37835;53.256;6.456;2022-10-16T00:15:12;7.05;;;2.05;;
51764;SDS011;37835;53.256;6.456;2022-10-16T00:17:38;7.43;;;2.13;;
51764;SDS011;37835;53.256;6.456;2022-10-16T00:20:03;4.78;;;1.50;;
51764;SDS011;37835;53.256;6.456;2022-10-16T00:22:29;10.77;;;2.08;;
51764;SDS011;37835;53.256;6.456;2022-10-16T00:24:55;5.65;;;1.40;;
51764;SDS011;37835;53.256;6.456;2022-10-16T00:27:20;8.13;;;1.92;;
51764;SDS011;37835;53.256;6.456;2022-10-16T00:29:49;15.52;;;2.33;;
51764;SDS011;37835;53.256;6.456;2022-10-16T00:32:16;12.70;;;1.83;;
51764;SDS011;37835;53.256;6.456;2022-10-16T00:34:42;5.55;;;1.50;;
51764;SDS011;37835;53.256;6.456;2022-10-16T00:37:08;6.22;;;1.63;;
51764;SDS011;37835;53.256;6.456;2022-10-16T00:39:33;9.05;;;1.52;;
51764;SDS011;37835;53.256;6.456;2022-10-16T00:41:59;7.90;;;1.67;;
51764;SDS011;37835;53.256;6.456;2022-10-16T00:47:35;9.35;;;1.70;;
51764;SDS011;37835;53.256;6.456;2022-10-16T00:50:08;4.45;;;1.38;;
51764;SDS011;37835;53.256;6.456;2022-10-16T00:52:36;7.32;;;1.52;;
51764;SDS011;37835;53.256;6.456;2022-10-16T00:55:04;2.70;;;1.35;;
51764;SDS011;37835;53.256;6.456;2022-10-16T00:57:31;8.98;;;1.40;;
51764;SDS011;37835;53.256;6.456;2022-10-16T00:59:57;7.63;;;1.70;;
51764;SDS011;37835;53.256;6.456;2022-10-16T01:02:23;6.80;;;1.55;;
51764;SDS011;37835;53.256;6.456;2022-10-16T01:04:50;9.15;;;1.88;;
51764;SDS011;37835;53.256;6.456;2022-10-16T01:10:07;6.20;;;1.52;;
51764;SDS011;37835;53.256;6.456;2022-10-16T01:12:50;5.38;;;1.50;;
51764;SDS011;37835;53.256;6.456;2022-10-16T01:20:54;5.28;;;1.55;;
51764;SDS011;37835;53.256;6.456;2022-10-16T01:24:03;4.00;;;1.42;;
51764;SDS011;37835;53.256;6.456;2022-10-16T01:29:13;3.90;;;1.25;;
51764;SDS011;37835;53.256;6.456;2022-10-16T01:31:40;7.05;;;1.30;;
51764;SDS011;37835;53.256;6.456;2022-10-16T01:34:16;3.67;;;1.40;;
51764;SDS011;37835;53.256;6.456;2022-10-16T01:36:51;6.80;;;1.60;;
51764;SDS011;37835;53.256;6.456;2022-10-16T01:39:21;7.43;;;1.20;;
51764;SDS011;37835;53.256;6.456;2022-10-16T01:42:11;6.30;;;1.60;;
51764;SDS011;37835;53.256;6.456;2022-10-16T01:44:43;4.85;;;1.50;;
51764;SDS011;37835;53.256;6.456;2022-10-16T01:47:12;8.65;;;1.58;;
51764;SDS011;37835;53.256;6.456;2022-10-16T01:49:39;6.93;;;1.13;;
51764;SDS011;37835;53.256;6.456;2022-10-16T01:52:09;3.30;;;1.33;;
51764;SDS011;37835;53.256;6.456;2022-10-16T01:54:39;5.97;;;1.20;;
51764;SDS011;37835;53.256;6.456;2022-10-16T01:57:07;2.47;;;1.02;;
51764;SDS011;37835;53.256;6.456;2022-10-16T01:59:34;3.17;;;1.40;;
51764;SDS011;37835;53.256;6.456;2022-10-16T02:02:05;5.78;;;1.33;;
51764;SDS011;37835;53.256;6.456;2022-10-16T02:04:34;7.18;;;1.38;;
51764;SDS011;37835;53.256;6.456;2022-10-16T02:07:19;3.90;;;1.23;;
51764;SDS011;37835;53.256;6.456;2022-10-16T02:09:45;4.18;;;1.40;;
51764;SDS011;37835;53.256;6.456;2022-10-16T02:12:28;4.10;;;1.30;;
51764;SDS011;37835;53.256;6.456;2022-10-16T02:14:56;4.43;;;1.52;;
51764;SDS011;37835;53.256;6.456;2022-10-16T02:17:22;5.95;;;1.88;;
51764;SDS011;37835;53.256;6.456;2022-10-16T02:19:49;3.85;;;1.20;;
51764;SDS011;37835;53.256;6.456;2022-10-16T02:22:39;3.75;;;1.50;;
51764;SDS011;37835;53.256;6.456;2022-10-16T02:27:55;8.60;;;1.75;;
51764;SDS011;37835;53.256;6.456;2022-10-16T02:30:37;6.40;;;1.58;;
51764;SDS011;37835;53.256;6.456;2022-10-16T02:33:08;4.85;;;1.40;;
51764;SDS011;37835;53.256;6.456;2022-10-16T02:35:36;4.43;;;1.65;;
51764;SDS011;37835;53.256;6.456;2022-10-16T02:38:03;7.40;;;1.60;;
51764;SDS011;37835;53.256;6.456;2022-10-16T02:40:29;4.75;;;1.70;;
51764;SDS011;37835;53.256;6.456;2022-10-16T02:42:55;7.78;;;1.65;;
51764;SDS011;37835;53.256;6.456;2022-10-16T02:45:21;3.30;;;1.50;;
51764;SDS011;37835;53.256;6.456;2022-10-16T02:47:48;3.65;;;1.50;;
51764;SDS011;37835;53.256;6.456;2022-10-16T02:50:14;2.90;;;1.40;;
51764;SDS011;37835;53.256;6.456;2022-10-16T02:52:40;3.72;;;1.20;;
51764;SDS011;37835;53.256;6.456;2022-10-16T02:55:05;2.70;;;1.45;;
51764;SDS011;37835;53.256;6.456;2022-10-16T02:57:31;3.10;;;1.40;;
51764;SDS011;37835;53.256;6.456;2022-10-16T02:59:57;3.25;;;1.70;;
51764;SDS011;37835;53.256;6.456;2022-10-16T03:02:23;5.53;;;1.65;;
51764;SDS011;37835;53.256;6.456;2022-10-16T03:04:48;2.47;;;1.60;;
51764;SDS011;37835;53.256;6.456;2022-10-16T03:07:14;2.05;;;1.15;;
51764;SDS011;37835;53.256;6.456;2022-10-16T03:09:40;2.85;;;1.30;;
51764;SDS011;37835;53.256;6.456;2022-10-16T03:12:05;5.22;;;1.40;;
51764;SDS011;37835;53.256;6.456;2022-10-16T03:14:31;3.90;;;1.13;;
51764;SDS011;37835;53.256;6.456;2022-10-16T03:16:57;6.38;;;1.23;;
51764;SDS011;37835;53.256;6.456;2022-10-16T03:19:22;5.25;;;1.15;;
51764;SDS011;37835;53.256;6.456;2022-10-16T03:21:48;4.88;;;1.45;;
51764;SDS011;37835;53.256;6.456;2022-10-16T03:24:14;4.68;;;1.25;;
51764;SDS011;37835;53.256;6.456;2022-10-16T03:26:39;5.72;;;1.52;;
51764;SDS011;37835;53.256;6.456;2022-10-16T03:29:05;3.92;;;1.40;;
51764;SDS011;37835;53.256;6.456;2022-10-16T03:31:31;2.45;;;1.48;;
51764;SDS011;37835;53.256;6.456;2022-10-16T03:33:56;5.95;;;1.38;;
51764;SDS011;37835;53.256;6.456;2022-10-16T03:36:22;4.28;;;1.40;;
51764;SDS011;37835;53.256;6.456;2022-10-16T03:38:48;2.53;;;1.50;;
51764;SDS011;37835;53.256;6.456;2022-10-16T03:41:14;3.40;;;1.33;;
51764;SDS011;37835;53.256;6.456;2022-10-16T03:43:39;3.58;;;1.10;;
51764;SDS011;37835;53.256;6.456;2022-10-16T03:46:05;3.58;;;1.35;;
51764;SDS011;37835;53.256;6.456;2022-10-16T03:48:31;4.50;;;1.42;;
51764;SDS011;37835;53.256;6.456;2022-10-16T03:50:57;5.05;;;1.40;;
51764;SDS011;37835;53.256;6.456;2022-10-16T03:53:23;3.00;;;1.20;;
51764;SDS011;37835;53.256;6.456;2022-10-16T03:55:49;3.90;;;1.10;;
51764;SDS011;37835;53.256;6.456;2022-10-16T03:58:14;4.53;;;1.60;;
51764;SDS011;37835;53.256;6.456;2022-10-16T04:00:40;5.85;;;1.23;;
51764;SDS011;37835;53.256;6.456;2022-10-16T04:03:07;3.13;;;1.95;;
51764;SDS011;37835;53.256;6.456;2022-10-16T04:05:33;6.03;;;1.23;;
51764;SDS011;37835;53.256;6.456;2022-10-16T04:07:59;3.42;;;1.30;;
51764;SDS011;37835;53.256;6.456;2022-10-16T04:10:24;4.38;;;2.00;;
51764;SDS011;37835;53.256;6.456;2022-10-16T04:12:50;4.68;;;1.20;;
51764;SDS011;37835;53.256;6.456;2022-10-16T04:15:16;4.15;;;1.60;;
51764;SDS011;37835;53.256;6.456;2022-10-16T04:17:41;3.90;;;1.30;;
51764;SDS011;37835;53.256;6.456;2022-10-16T04:20:07;2.50;;;1.10;;
51764;SDS011;37835;53.256;6.456;2022-10-16T04:22:33;3.83;;;1.40;;
51764;SDS011;37835;53.256;6.456;2022-10-16T04:24:58;2.13;;;1.15;;
51764;SDS011;37835;53.256;6.456;2022-10-16T04:27:24;7.75;;;1.65;;
51764;SDS011;37835;53.256;6.456;2022-10-16T04:29:50;5.88;;;1.83;;
51764;SDS011;37835;53.256;6.456;2022-10-16T04:32:15;9.98;;;1.92;;
51764;SDS011;37835;53.256;6.456;2022-10-16T04:34:41;1.55;;;1.20;;
51764;SDS011;37835;53.256;6.456;2022-10-16T04:37:06;2.30;;;1.38;;
51764;SDS011;37835;53.256;6.456;2022-10-16T04:39:32;3.08;;;1.30;;
51764;SDS011;37835;53.256;6.456;2022-10-16T04:41:58;2.03;;;1.33;;
51764;SDS011;37835;53.256;6.456;2022-10-16T04:44:23;3.85;;;1.92;;
51764;SDS011;37835;53.256;6.456;2022-10-16T04:46:52;3.55;;;1.67;;
51764;SDS011;37835;53.256;6.456;2022-10-16T04:49:17;5.95;;;1.85;;
51764;SDS011;37835;53.256;6.456;2022-10-16T04:51:43;1.65;;;1.40;;
51764;SDS011;37835;53.256;6.456;2022-10-16T04:54:09;2.75;;;1.60;;
51764;SDS011;37835;53.256;6.456;2022-10-16T04:56:35;3.28;;;1.50;;
51764;SDS011;37835;53.256;6.456;2022-10-16T04:59:08;9.43;;;1.63;;
51764;SDS011;37835;53.256;6.456;2022-10-16T05:01:34;2.17;;;1.42;;
51764;SDS011;37835;53.256;6.456;2022-10-16T05:03:59;2.65;;;1.48;;
51764;SDS011;37835;53.256;6.456;2022-10-16T05:06:25;4.72;;;1.77;;
51764;SDS011;37835;53.256;6.456;2022-10-16T05:08:50;5.78;;;1.83;;
51764;SDS011;37835;53.256;6.456;2022-10-16T05:11:16;4.97;;;1.65;;
51764;SDS011;37835;53.256;6.456;2022-10-16T05:13:41;3.88;;;1.75;;
51764;SDS011;37835;53.256;6.456;2022-10-16T05:16:07;4.50;;;1.80;;
51764;SDS011;37835;53.256;6.456;2022-10-16T05:18:32;4.85;;;1.75;;
51764;SDS011;37835;53.256;6.456;2022-10-16T05:20:58;4.65;;;1.52;;
51764;SDS011;37835;53.256;6.456;2022-10-16T05:23:24;5.60;;;1.70;;
51764;SDS011;37835;53.256;6.456;2022-10-16T05:25:53;5.78;;;1.92;;
51764;SDS011;37835;53.256;6.456;2022-10-16T05:28:20;4.70;;;1.90;;
51764;SDS011;37835;53.256;6.456;2022-10-16T05:30:46;4.88;;;1.98;;
51764;SDS011;37835;53.256;6.456;2022-10-16T05:33:11;6.25;;;1.70;;
51764;SDS011;37835;53.256;6.456;2022-10-16T05:35:37;5.47;;;2.17;;
51764;SDS011;37835;53.256;6.456;2022-10-16T05:38:02;2.95;;;1.98;;
51764;SDS011;37835;53.256;6.456;2022-10-16T05:40:28;7.32;;;1.83;;
51764;SDS011;37835;53.256;6.456;2022-10-16T05:42:56;4.82;;;2.13;;
51764;SDS011;37835;53.256;6.456;2022-10-16T05:45:22;8.32;;;2.05;;
51764;SDS011;37835;53.256;6.456;2022-10-16T05:47:48;6.70;;;2.45;;
51764;SDS011;37835;53.256;6.456;2022-10-16T05:50:13;5.25;;;2.40;;
51764;SDS011;37835;53.256;6.456;2022-10-16T05:52:39;6.47;;;2.17;;
51764;SDS011;37835;53.256;6.456;2022-10-16T05:55:04;5.70;;;2.50;;
51764;SDS011;37835;53.256;6.456;2022-10-16T05:57:30;4.63;;;1.90;;
51764;SDS011;37835;53.256;6.456;2022-10-16T05:59:56;3.53;;;2.03;;
51764;SDS011;37835;53.256;6.456;2022-10-16T06:02:21;7.15;;;2.30;;
51764;SDS011;37835;53.256;6.456;2022-10-16T06:04:47;8.27;;;2.15;;
51764;SDS011;37835;53.256;6.456;2022-10-16T06:07:13;6.80;;;2.10;;
51764;SDS011;37835;53.256;6.456;2022-10-16T06:09:38;5.50;;;2.20;;
51764;SDS011;37835;53.256;6.456;2022-10-16T06:12:04;5.20;;;2.17;;
51764;SDS011;37835;53.256;6.456;2022-10-16T06:14:29;10.63;;;2.45;;
51764;SDS011;37835;53.256;6.456;2022-10-16T06:16:55;3.17;;;2.33;;
51764;SDS011;37835;53.256;6.456;2022-10-16T06:19:21;7.32;;;2.38;;
51764;SDS011;37835;53.256;6.456;2022-10-16T06:21:47;6.47;;;2.58;;
51764;SDS011;37835;53.256;6.456;2022-10-16T06:24:13;6.13;;;2.50;;
51764;SDS011;37835;53.256;6.456;2022-10-16T06:26:39;7.80;;;2.40;;
51764;SDS011;37835;53.256;6.456;2022-10-16T06:29:04;7.53;;;2.50;;
51764;SDS011;37835;53.256;6.456;2022-10-16T06:31:30;8.52;;;2.55;;
51764;SDS011;37835;53.256;6.456;2022-10-16T06:33:58;5.25;;;2.75;;
51764;SDS011;37835;53.256;6.456;2022-10-16T06:36:25;9.18;;;2.72;;
51764;SDS011;37835;53.256;6.456;2022-10-16T06:38:51;9.57;;;2.72;;
51764;SDS011;37835;53.256;6.456;2022-10-16T06:41:18;5.28;;;2.47;;
51764;SDS011;37835;53.256;6.456;2022-10-16T06:43:46;7.30;;;2.63;;
51764;SDS011;37835;53.256;6.456;2022-10-16T06:46:14;6.93;;;2.85;;
51764;SDS011;37835;53.256;6.456;2022-10-16T06:48:41;5.38;;;2.50;;
51764;SDS011;37835;53.256;6.456;2022-10-16T06:51:11;5.88;;;2.60;;
51764;SDS011;37835;53.256;6.456;2022-10-16T06:53:42;5.03;;;2.22;;
51764;SDS011;37835;53.256;6.456;2022-10-16T06:56:09;8.07;;;2.40;;
51764;SDS011;37835;53.256;6.456;2022-10-16T06:58:37;7.00;;;2.72;;
51764;SDS011;37835;53.256;6.456;2022-10-16T07:01:03;7.97;;;2.17;;
51764;SDS011;37835;53.256;6.456;2022-10-16T07:03:30;3.97;;;1.90;;
51764;SDS011;37835;53.256;6.456;2022-10-16T07:05:56;5.45;;;2.33;;
51764;SDS011;37835;53.256;6.456;2022-10-16T07:08:21;5.50;;;2.30;;
51764;SDS011;37835;53.256;6.456;2022-10-16T07:10:47;4.25;;;2.00;;
51764;SDS011;37835;53.256;6.456;2022-10-16T07:13:13;5.97;;;2.25;;
51764;SDS011;37835;53.256;6.456;2022-10-16T07:15:39;5.68;;;2.33;;
51764;SDS011;37835;53.256;6.456;2022-10-16T07:18:05;6.50;;;2.30;;
51764;SDS011;37835;53.256;6.456;2022-10-16T07:20:32;9.73;;;2.10;;
51764;SDS011;37835;53.256;6.456;2022-10-16T07:22:57;4.47;;;2.00;;
51764;SDS011;37835;53.256;6.456;2022-10-16T07:25:23;3.35;;;2.00;;
51764;SDS011;37835;53.256;6.456;2022-10-16T07:27:48;7.38;;;2.10;;
51764;SDS011;37835;53.256;6.456;2022-10-16T07:30:14;5.90;;;1.50;;
51764;SDS011;37835;53.256;6.456;2022-10-16T07:32:39;4.63;;;1.55;;
51764;SDS011;37835;53.256;6.456;2022-10-16T07:35:05;5.25;;;1.73;;
51764;SDS011;37835;53.256;6.456;2022-10-16T07:37:31;8.73;;;1.75;;
51764;SDS011;37835;53.256;6.456;2022-10-16T07:39:57;7.55;;;1.52;;
51764;SDS011;37835;53.256;6.456;2022-10-16T07:42:22;3.10;;;1.50;;
51764;SDS011;37835;53.256;6.456;2022-10-16T07:44:48;5.75;;;1.80;;
51764;SDS011;37835;53.256;6.456;2022-10-16T07:47:13;3.08;;;1.52;;
51764;SDS011;37835;53.256;6.456;2022-10-16T07:49:39;5.28;;;2.00;;
51764;SDS011;37835;53.256;6.456;2022-10-16T07:52:05;7.88;;;2.00;;
51764;SDS011;37835;53.256;6.456;2022-10-16T07:54:30;6.85;;;2.08;;
51764;SDS011;37835;53.256;6.456;2022-10-16T07:56:56;4.07;;;2.00;;
51764;SDS011;37835;53.256;6.456;2022-10-16T07:59:21;11.07;;;2.58;;
51764;SDS011;37835;53.256;6.456;2022-10-16T08:01:48;6.88;;;2.03;;
51764;SDS011;37835;53.256;6.456;2022-10-16T08:04:14;8.15;;;2.17;;
51764;SDS011;37835;53.256;6.456;2022-10-16T08:06:40;4.95;;;2.03;;
51764;SDS011;37835;53.256;6.456;2022-10-16T08:09:07;9.02;;;2.38;;
51764;SDS011;37835;53.256;6.456;2022-10-16T08:11:33;4.40;;;2.28;;
51764;SDS011;37835;53.256;6.456;2022-10-16T08:13:58;4.25;;;2.25;;
51764;SDS011;37835;53.256;6.456;2022-10-16T08:16:24;10.48;;;2.80;;
51764;SDS011;37835;53.256;6.456;2022-10-16T08:18:49;6.88;;;2.40;;
51764;SDS011;37835;53.256;6.456;2022-10-16T08:21:17;7.97;;;2.33;;
51764;SDS011;37835;53.256;6.456;2022-10-16T08:23:44;4.60;;;2.40;;
51764;SDS011;37835;53.256;6.456;2022-10-16T08:26:10;12.15;;;2.60;;
51764;SDS011;37835;53.256;6.456;2022-10-16T08:28:36;6.28;;;2.40;;
51764;SDS011;37835;53.256;6.456;2022-10-16T08:31:08;7.43;;;2.60;;
51764;SDS011;37835;53.256;6.456;2022-10-16T08:33:36;8.98;;;2.40;;
51764;SDS011;37835;53.256;6.456;2022-10-16T08:36:02;7.43;;;2.20;;
51764;SDS011;37835;53.256;6.456;2022-10-16T08:38:29;6.65;;;2.30;;
51764;SDS011;37835;53.256;6.456;2022-10-16T08:40:57;4.93;;;1.80;;
51764;SDS011;37835;53.256;6.456;2022-10-16T08:49:14;10.27;;;2.10;;
51764;SDS011;37835;53.256;6.456;2022-10-16T08:51:40;7.45;;;2.35;;
51764;SDS011;37835;53.256;6.456;2022-10-16T08:54:27;6.00;;;1.80;;
51764;SDS011;37835;53.256;6.456;2022-10-16T08:57:13;3.92;;;1.70;;
51764;SDS011;37835;53.256;6.456;2022-10-16T08:59:45;7.30;;;1.85;;
51764;SDS011;37835;53.256;6.456;2022-10-16T09:08:19;6.82;;;1.48;;
51764;SDS011;37835;53.256;6.456;2022-10-16T09:10:58;7.57;;;2.28;;
51764;SDS011;37835;53.256;6.456;2022-10-16T09:21:30;13.50;;;1.85;;
51764;SDS011;37835;53.256;6.456;2022-10-16T09:23:58;5.78;;;1.30;;
51764;SDS011;37835;53.256;6.456;2022-10-16T09:26:33;6.53;;;1.90;;
51764;SDS011;37835;53.256;6.456;2022-10-16T09:28:59;7.80;;;1.90;;
51764;SDS011;37835;53.256;6.456;2022-10-16T09:31:24;12.77;;;2.00;;
51764;SDS011;37835;53.256;6.456;2022-10-16T09:33:52;11.20;;;2.20;;
51764;SDS011;37835;53.256;6.456;2022-10-16T09:36:20;9.73;;;2.33;;
51764;SDS011;37835;53.256;6.456;2022-10-16T09:38:48;12.05;;;2.33;;
51764;SDS011;37835;53.256;6.456;2022-10-16T09:49:01;13.93;;;2.83;;
51764;SDS011;37835;53.256;6.456;2022-10-16T09:51:44;14.80;;;1.95;;
51764;SDS011;37835;53.256;6.456;2022-10-16T09:54:15;12.00;;;1.95;;
51764;SDS011;37835;53.256;6.456;2022-10-16T09:56:42;8.52;;;1.95;;
51764;SDS011;37835;53.256;6.456;2022-10-16T09:59:15;11.73;;;2.30;;
51764;SDS011;37835;53.256;6.456;2022-10-16T10:04:22;12.23;;;2.25;;
51764;SDS011;37835;53.256;6.456;2022-10-16T10:06:50;11.60;;;1.70;;
51764;SDS011;37835;53.256;6.456;2022-10-16T10:11:58;11.27;;;1.65;;
51764;SDS011;37835;53.256;6.456;2022-10-16T10:14:43;10.63;;;2.00;;
51764;SDS011;37835;53.256;6.456;2022-10-16T10:17:16;15.52;;;2.13;;
51764;SDS011;37835;53.256;6.456;2022-10-16T10:19:57;9.35;;;1.73;;
51764;SDS011;37835;53.256;6.456;2022-10-16T10:22:29;10.20;;;1.77;;
51764;SDS011;37835;53.256;6.456;2022-10-16T10:30:23;12.30;;;2.58;;
51764;SDS011;37835;53.256;6.456;2022-10-16T10:33:01;13.70;;;1.83;;
51764;SDS011;37835;53.256;6.456;2022-10-16T10:38:44;11.85;;;2.35;;
51764;SDS011;37835;53.256;6.456;2022-10-16T10:43:58;15.95;;;2.17;;
51764;SDS011;37835;53.256;6.456;2022-10-16T10:46:38;17.98;;;2.30;;
51764;SDS011;37835;53.256;6.456;2022-10-16T10:52:11;13.40;;;2.08;;
51764;SDS011;37835;53.256;6.456;2022-10-16T10:57:20;12.48;;;2.42;;
51764;SDS011;37835;53.256;6.456;2022-10-16T11:00:02;12.20;;;1.65;;
51764;SDS011;37835;53.256;6.456;2022-10-16T11:03:03;8.75;;;1.63;;
51764;SDS011;37835;53.256;6.456;2022-10-16T11:05:50;10.45;;;1.65;;
51764;SDS011;37835;53.256;6.456;2022-10-16T11:08:31;15.05;;;2.47;;
51764;SDS011;37835;53.256;6.456;2022-10-16T11:14:05;10.35;;;1.60;;
51764;SDS011;37835;53.256;6.456;2022-10-16T11:16:53;10.65;;;2.00;;
51764;SDS011;37835;53.256;6.456;2022-10-16T11:19:31;12.27;;;2.10;;
51764;SDS011;37835;53.256;6.456;2022-10-16T11:22:18;13.57;;;2.10;;
51764;SDS011;37835;53.256;6.456;2022-10-16T11:27:44;14.45;;;2.20;;
51764;SDS011;37835;53.256;6.456;2022-10-16T11:30:23;16.02;;;2.47;;
51764;SDS011;37835;53.256;6.456;2022-10-16T11:35:25;15.95;;;2.40;;
51764;SDS011;37835;53.256;6.456;2022-10-16T11:38:14;16.42;;;2.33;;
51764;SDS011;37835;53.256;6.456;2022-10-16T11:40:49;17.10;;;2.22;;
51764;SDS011;37835;53.256;6.456;2022-10-16T11:43:22;9.57;;;1.67;;
51764;SDS011;37835;53.256;6.456;2022-10-16T11:45:54;13.70;;;2.40;;
51764;SDS011;37835;53.256;6.456;2022-10-16T11:51:27;15.07;;;2.22;;
51764;SDS011;37835;53.256;6.456;2022-10-16T11:57:03;11.27;;;1.80;;
51764;SDS011;37835;53.256;6.456;2022-10-16T11:59:42;10.88;;;2.10;;
51764;SDS011;37835;53.256;6.456;2022-10-16T12:02:20;8.82;;;1.92;;
51764;SDS011;37835;53.256;6.456;2022-10-16T12:04:53;15.77;;;2.50;;
51764;SDS011;37835;53.256;6.456;2022-10-16T12:07:48;16.65;;;3.08;;
51764;SDS011;37835;53.256;6.456;2022-10-16T12:10:25;9.57;;;2.42;;
51764;SDS011;37835;53.256;6.456;2022-10-16T12:12:52;15.98;;;2.53;;
51764;SDS011;37835;53.256;6.456;2022-10-16T12:15:28;22.02;;;3.35;;
51764;SDS011;37835;53.256;6.456;2022-10-16T12:17:56;13.18;;;2.55;;
51764;SDS011;37835;53.256;6.456;2022-10-16T12:20:24;11.27;;;1.63;;
51764;SDS011;37835;53.256;6.456;2022-10-16T12:25:37;11.77;;;2.20;;
51764;SDS011;37835;53.256;6.456;2022-10-16T12:30:40;10.90;;;1.85;;
51764;SDS011;37835;53.256;6.456;2022-10-16T12:33:21;11.68;;;2.10;;
51764;SDS011;37835;53.256;6.456;2022-10-16T12:35:51;9.15;;;1.70;;
51764;SDS011;37835;53.256;6.456;2022-10-16T12:38:25;11.00;;;1.83;;
51764;SDS011;37835;53.256;6.456;2022-10-16T12:41:03;13.65;;;1.88;;
51764;SDS011;37835;53.256;6.456;2022-10-16T12:48:40;12.23;;;2.03;;
51764;SDS011;37835;53.256;6.456;2022-10-16T12:51:12;11.98;;;2.17;;
51764;SDS011;37835;53.256;6.456;2022-10-16T12:54:15;12.13;;;1.77;;
51764;SDS011;37835;53.256;6.456;2022-10-16T12:56:58;11.32;;;1.95;;
51764;SDS011;37835;53.256;6.456;2022-10-16T13:18:19;10.85;;;1.45;;
51764;SDS011;37835;53.256;6.456;2022-10-16T13:29:03;10.05;;;1.85;;
51764;SDS011;37835;53.256;6.456;2022-10-16T13:31:29;9.75;;;1.55;;
51764;SDS011;37835;53.256;6.456;2022-10-16T13:33:56;9.38;;;1.48;;
51764;SDS011;37835;53.256;6.456;2022-10-16T13:36:28;10.27;;;1.63;;
51764;SDS011;37835;53.256;6.456;2022-10-16T13:41:44;12.75;;;2.03;;
51764;SDS011;37835;53.256;6.456;2022-10-16T13:44:19;9.60;;;1.70;;
51764;SDS011;37835;53.256;6.456;2022-10-16T13:46:45;9.00;;;1.73;;
51764;SDS011;37835;53.256;6.456;2022-10-16T13:49:15;8.75;;;1.52;;
51764;SDS011;37835;53.256;6.456;2022-10-16T13:51:41;9.27;;;1.90;;
51764;SDS011;37835;53.256;6.456;2022-10-16T13:54:23;12.18;;;1.75;;
51764;SDS011;37835;53.256;6.456;2022-10-16T13:56:50;7.20;;;1.63;;
51764;SDS011;37835;53.256;6.456;2022-10-16T13:59:22;12.60;;;2.50;;
51764;SDS011;37835;53.256;6.456;2022-10-16T14:04:23;9.73;;;1.30;;
51764;SDS011;37835;53.256;6.456;2022-10-16T14:06:50;5.10;;;1.40;;
51764;SDS011;37835;53.256;6.456;2022-10-16T14:09:26;10.45;;;1.98;;
51764;SDS011;37835;53.256;6.456;2022-10-16T14:11:54;12.05;;;1.65;;
51764;SDS011;37835;53.256;6.456;2022-10-16T14:14:23;14.38;;;2.17;;
51764;SDS011;37835;53.256;6.456;2022-10-16T14:16:51;8.73;;;1.38;;
51764;SDS011;37835;53.256;6.456;2022-10-16T14:19:19;9.88;;;1.70;;
51764;SDS011;37835;53.256;6.456;2022-10-16T14:21:52;12.68;;;1.77;;
51764;SDS011;37835;53.256;6.456;2022-10-16T14:26:59;13.30;;;2.08;;
51764;SDS011;37835;53.256;6.456;2022-10-16T14:29:27;8.77;;;2.05;;
51764;SDS011;37835;53.256;6.456;2022-10-16T14:31:57;10.98;;;1.80;;
51764;SDS011;37835;53.256;6.456;2022-10-16T14:34:29;14.20;;;2.33;;
51764;SDS011;37835;53.256;6.456;2022-10-16T14:42:00;12.70;;;2.55;;
51764;SDS011;37835;53.256;6.456;2022-10-16T14:44:31;13.02;;;2.75;;
51764;SDS011;37835;53.256;6.456;2022-10-16T14:46:58;10.82;;;1.80;;
51764;SDS011;37835;53.256;6.456;2022-10-16T14:49:34;10.68;;;1.77;;
51764;SDS011;37835;53.256;6.456;2022-10-16T14:51:59;12.70;;;2.17;;
51764;SDS011;37835;53.256;6.456;2022-10-16T14:54:26;9.55;;;1.60;;
51764;SDS011;37835;53.256;6.456;2022-10-16T14:59:24;9.50;;;1.83;;
51764;SDS011;37835;53.256;6.456;2022-10-16T15:01:55;7.88;;;1.80;;
51764;SDS011;37835;53.256;6.456;2022-10-16T15:04:21;15.05;;;2.15;;
51764;SDS011;37835;53.256;6.456;2022-10-16T15:06:46;14.70;;;2.05;;
51764;SDS011;37835;53.256;6.456;2022-10-16T15:09:12;11.75;;;1.88;;
51764;SDS011;37835;53.256;6.456;2022-10-16T15:11:38;14.73;;;1.98;;
51764;SDS011;37835;53.256;6.456;2022-10-16T15:14:04;10.40;;;2.05;;
51764;SDS011;37835;53.256;6.456;2022-10-16T15:16:30;9.18;;;1.73;;
51764;SDS011;37835;53.256;6.456;2022-10-16T15:18:56;14.13;;;2.47;;
51764;SDS011;37835;53.256;6.456;2022-10-16T15:21:26;13.27;;;1.70;;
51764;SDS011;37835;53.256;6.456;2022-10-16T15:23:55;13.07;;;1.38;;
51764;SDS011;37835;53.256;6.456;2022-10-16T15:26:25;11.05;;;1.90;;
51764;SDS011;37835;53.256;6.456;2022-10-16T15:28:51;12.95;;;1.83;;
51764;SDS011;37835;53.256;6.456;2022-10-16T15:31:17;10.75;;;1.70;;
51764;SDS011;37835;53.256;6.456;2022-10-16T15:33:42;12.30;;;1.88;;
51764;SDS011;37835;53.256;6.456;2022-10-16T15:36:08;11.10;;;1.88;;
51764;SDS011;37835;53.256;6.456;2022-10-16T15:38:34;13.48;;;1.92;;
51764;SDS011;37835;53.256;6.456;2022-10-16T15:41:00;12.73;;;2.13;;
51764;SDS011;37835;53.256;6.456;2022-10-16T15:43:26;11.73;;;1.80;;
51764;SDS011;37835;53.256;6.456;2022-10-16T15:48:28;12.75;;;2.13;;
51764;SDS011;37835;53.256;6.456;2022-10-16T15:50:55;11.13;;;2.28;;
51764;SDS011;37835;53.256;6.456;2022-10-16T15:53:20;13.65;;;2.33;;
51764;SDS011;37835;53.256;6.456;2022-10-16T15:55:46;16.67;;;2.03;;
51764;SDS011;37835;53.256;6.456;2022-10-16T15:58:12;12.50;;;2.20;;
51764;SDS011;37835;53.256;6.456;2022-10-16T16:00:37;13.25;;;1.92;;
51764;SDS011;37835;53.256;6.456;2022-10-16T16:03:03;8.90;;;1.58;;
51764;SDS011;37835;53.256;6.456;2022-10-16T16:05:28;13.32;;;2.70;;
51764;SDS011;37835;53.256;6.456;2022-10-16T16:07:54;11.05;;;1.83;;
51764;SDS011;37835;53.256;6.456;2022-10-16T16:10:20;12.35;;;2.17;;
51764;SDS011;37835;53.256;6.456;2022-10-16T16:12:46;11.70;;;2.45;;
51764;SDS011;37835;53.256;6.456;2022-10-16T16:15:18;11.00;;;2.85;;
51764;SDS011;37835;53.256;6.456;2022-10-16T16:17:45;19.60;;;3.40;;
51764;SDS011;37835;53.256;6.456;2022-10-16T16:20:11;12.05;;;2.45;;
51764;SDS011;37835;53.256;6.456;2022-10-16T16:22:37;12.65;;;3.75;;
51764;SDS011;37835;53.256;6.456;2022-10-16T16:25:02;16.88;;;3.92;;
51764;SDS011;37835;53.256;6.456;2022-10-16T16:27:28;15.75;;;3.15;;
51764;SDS011;37835;53.256;6.456;2022-10-16T16:29:57;15.68;;;3.63;;
51764;SDS011;37835;53.256;6.456;2022-10-16T16:32:23;16.90;;;3.08;;
51764;SDS011;37835;53.256;6.456;2022-10-16T16:34:49;12.93;;;3.35;;
51764;SDS011;37835;53.256;6.456;2022-10-16T16:37:14;12.90;;;3.63;;
51764;SDS011;37835;53.256;6.456;2022-10-16T16:39:40;14.05;;;4.72;;
51764;SDS011;37835;53.256;6.456;2022-10-16T16:42:06;16.27;;;5.28;;
51764;SDS011;37835;53.256;6.456;2022-10-16T16:44:32;17.25;;;5.38;;
51764;SDS011;37835;53.256;6.456;2022-10-16T16:46:58;20.40;;;4.53;;
51764;SDS011;37835;53.256;6.456;2022-10-16T16:49:24;16.23;;;5.03;;
51764;SDS011;37835;53.256;6.456;2022-10-16T16:51:49;16.30;;;4.55;;
51764;SDS011;37835;53.256;6.456;2022-10-16T16:54:17;13.93;;;4.07;;
51764;SDS011;37835;53.256;6.456;2022-10-16T16:56:42;14.98;;;4.80;;
51764;SDS011;37835;53.256;6.456;2022-10-16T16:59:13;14.95;;;4.30;;
51764;SDS011;37835;53.256;6.456;2022-10-16T17:01:40;17.02;;;4.95;;
51764;SDS011;37835;53.256;6.456;2022-10-16T17:04:06;24.13;;;5.18;;
51764;SDS011;37835;53.256;6.456;2022-10-16T17:06:32;16.23;;;5.43;;
51764;SDS011;37835;53.256;6.456;2022-10-16T17:08:58;20.00;;;6.43;;